createdAt,value
2023-04-01T00:01:17.909Z,18.25
2023-04-01T00:03:46.577Z,15.13
2023-04-01T00:06:17.818Z,17.40
2023-04-01T00:08:46.819Z,16.38
2023-04-01T00:11:16.624Z,17.13
2023-04-01T00:13:45.074Z,17.80
2023-04-01T00:16:21.734Z,16.85
2023-04-01T00:18:52.130Z,15.57
2023-04-01T00:21:21.966Z,17.55
2023-04-01T00:23:52.240Z,15.98
2023-04-01T00:26:22.650Z,15.13
2023-04-01T00:28:51.207Z,16.60
2023-04-01T00:31:19.944Z,15.45
2023-04-01T00:33:48.170Z,14.70
2023-04-01T00:36:20.579Z,16.45
2023-04-01T00:38:50.693Z,15.80
2023-04-01T00:41:22.369Z,15.27
2023-04-01T00:43:53.208Z,15.65
2023-04-01T00:46:21.434Z,15.75
2023-04-01T00:48:56.487Z,14.77
2023-04-01T00:51:31.459Z,15.70
2023-04-01T00:54:02.853Z,15.57
2023-04-01T00:56:38.001Z,17.42
2023-04-01T00:59:12.101Z,18.30
2023-04-01T01:01:41.860Z,18.50
2023-04-01T01:04:24.917Z,20.38
2023-04-01T01:07:26.576Z,19.20
2023-04-01T01:10:07.391Z,19.83
2023-04-01T01:12:51.143Z,18.63
2023-04-01T01:15:28.851Z,20.98
2023-04-01T01:18:18.725Z,17.98
2023-04-01T01:20:59.293Z,16.10
2023-04-01T01:23:37.611Z,13.88
2023-04-01T01:26:33.866Z,13.48
2023-04-01T01:29:22.841Z,15.57
2023-04-01T01:32:19.144Z,17.35
2023-04-01T01:35:14.712Z,17.20
2023-04-01T01:37:47.199Z,17.83
2023-04-01T01:40:17.230Z,16.98
2023-04-01T01:42:53.741Z,18.35
2023-04-01T01:45:26.600Z,19.20
2023-04-01T01:47:56.255Z,18.17
2023-04-01T01:50:27.393Z,18.15
2023-04-01T01:53:07.468Z,16.35
2023-04-01T01:55:44.537Z,14.68
2023-04-01T01:58:30.596Z,13.85
2023-04-01T02:01:02.685Z,14.55
2023-04-01T02:03:36.233Z,16.42
2023-04-01T02:08:38.002Z,19.85
2023-04-01T02:11:14.781Z,19.20
2023-04-01T02:14:06.509Z,20.45
2023-04-01T02:17:19.801Z,21.33
2023-04-01T02:20:14.714Z,29.35
2023-04-01T02:23:04.679Z,25.63
2023-04-01T02:25:53.672Z,22.63
2023-04-01T02:28:44.575Z,22.33
2023-04-01T02:31:33.701Z,22.27
2023-04-01T02:34:24.288Z,27.33
2023-04-01T02:37:15.006Z,25.45
2023-04-01T02:40:08.668Z,26.27
2023-04-01T02:42:57.054Z,27.15
2023-04-01T02:45:46.092Z,25.25
2023-04-01T02:48:35.067Z,25.55
2023-04-01T02:51:23.836Z,25.55
2023-04-01T02:54:12.702Z,25.35
2023-04-01T02:57:01.225Z,24.55
2023-04-01T02:59:50.410Z,25.35
2023-04-01T03:02:40.212Z,23.80
2023-04-01T03:05:29.113Z,25.35
2023-04-01T03:08:17.392Z,23.67
2023-04-01T03:11:07.034Z,23.00
2023-04-01T03:13:58.621Z,20.90
2023-04-01T03:16:47.725Z,20.92
2023-04-01T03:19:36.349Z,14.68
2023-04-01T03:22:29.192Z,14.25
2023-04-01T03:25:17.478Z,15.15
2023-04-01T03:28:06.666Z,16.80
2023-04-01T03:30:55.109Z,14.70
2023-04-01T03:33:44.744Z,13.18
2023-04-01T03:36:33.048Z,14.20
2023-04-01T03:39:21.969Z,14.02
2023-04-01T03:42:11.653Z,15.52
2023-04-01T03:45:00.435Z,17.15
2023-04-01T03:47:48.918Z,16.85
2023-04-01T03:50:38.118Z,17.42
2023-04-01T03:53:28.348Z,16.90
2023-04-01T03:59:09.397Z,17.92
2023-04-01T04:01:58.049Z,18.95
2023-04-01T04:04:47.583Z,21.10
2023-04-01T04:07:37.417Z,20.90
2023-04-01T04:10:30.362Z,21.50
2023-04-01T04:13:18.639Z,20.70
2023-04-01T04:16:12.927Z,22.88
2023-04-01T04:19:06.646Z,21.35
2023-04-01T04:21:55.628Z,22.25
2023-04-01T04:24:44.522Z,23.80
2023-04-01T04:27:35.443Z,23.00
2023-04-01T04:30:32.734Z,22.95
2023-04-01T04:33:21.330Z,22.17
2023-04-01T04:36:10.263Z,23.08
2023-04-01T04:39:03.059Z,22.48
2023-04-01T04:41:53.183Z,22.85
2023-04-01T04:44:41.734Z,23.83
2023-04-01T04:47:31.167Z,25.15
2023-04-01T04:50:20.070Z,22.30
2023-04-01T04:53:10.813Z,24.45
2023-04-01T04:55:59.531Z,22.17
2023-04-01T04:59:05.230Z,20.73
2023-04-01T05:02:04.126Z,19.15
2023-04-01T05:04:54.093Z,20.20
2023-04-01T05:07:43.191Z,18.60
2023-04-01T05:10:32.602Z,17.60
2023-04-01T05:13:21.451Z,20.38
2023-04-01T05:16:12.224Z,21.48
2023-04-01T05:19:00.884Z,20.80
2023-04-01T05:21:49.190Z,18.30
2023-04-01T05:24:37.891Z,19.90
2023-04-01T05:27:26.304Z,15.35
2023-04-01T05:29:54.870Z,17.13
2023-04-01T05:32:59.409Z,21.52
2023-04-01T05:35:27.979Z,21.20
2023-04-01T05:37:56.404Z,21.33
2023-04-01T05:40:25.316Z,20.02
2023-04-01T05:42:54.006Z,20.52
2023-04-01T05:45:24.765Z,20.45
2023-04-01T05:48:12.060Z,17.15
2023-04-01T05:50:43.402Z,16.90
2023-04-01T05:53:13.670Z,15.93
2023-04-01T05:55:44.808Z,19.00
2023-04-01T05:58:13.122Z,22.80
2023-04-01T06:00:44.963Z,21.42
2023-04-01T06:03:15.300Z,21.83
2023-04-01T06:05:45.906Z,19.75
2023-04-01T06:08:20.858Z,19.13
2023-04-01T06:10:54.537Z,19.67
2023-04-01T06:13:38.909Z,18.83
2023-04-01T06:16:44.338Z,18.30
2023-04-01T06:19:15.110Z,15.63
2023-04-01T06:22:12.729Z,15.15
2023-04-01T06:24:49.639Z,14.35
2023-04-01T06:27:26.915Z,14.57
2023-04-01T06:30:02.635Z,13.30
2023-04-01T06:32:51.301Z,13.15
2023-04-01T06:35:47.219Z,13.05
2023-04-01T06:38:41.261Z,13.15
2023-04-01T06:41:25.737Z,12.15
2023-04-01T06:44:23.968Z,11.43
2023-04-01T06:47:30.560Z,11.02
2023-04-01T06:50:36.890Z,10.13
2023-04-01T06:53:42.554Z,11.07
2023-04-01T06:56:19.442Z,11.65
2023-04-01T06:59:22.030Z,10.90
2023-04-01T07:01:56.394Z,11.02
2023-04-01T07:04:33.218Z,15.98
2023-04-01T07:07:15.896Z,14.93
2023-04-01T07:09:56.557Z,11.30
2023-04-01T07:13:12.168Z,9.57
2023-04-01T07:16:21.505Z,9.95
2023-04-01T07:18:55.838Z,9.05
2023-04-01T07:21:52.204Z,7.35
2023-04-01T07:24:41.894Z,6.63
2023-04-01T07:27:14.098Z,7.35
2023-04-01T07:29:43.954Z,7.03
2023-04-01T07:32:25.777Z,6.65
2023-04-01T07:35:02.777Z,5.72
2023-04-01T07:37:58.914Z,6.43
2023-04-01T07:40:33.856Z,5.85
2023-04-01T07:43:54.316Z,6.97
2023-04-01T07:46:42.952Z,6.30
2023-04-01T07:49:20.937Z,5.95
2023-04-01T07:52:02.098Z,7.05
2023-04-01T07:54:59.154Z,8.38
2023-04-01T07:57:36.464Z,8.18
2023-04-01T08:00:22.148Z,7.88
2023-04-01T08:03:28.030Z,7.55
2023-04-01T08:05:58.850Z,8.45
2023-04-01T08:08:28.322Z,7.85
2023-04-01T08:11:47.993Z,8.73
2023-04-01T08:15:13.898Z,7.95
2023-04-01T08:18:29.178Z,8.27
2023-04-01T08:21:23.155Z,7.85
2023-04-01T08:23:56.843Z,8.77
2023-04-01T08:26:44.151Z,9.90
2023-04-01T08:29:41.348Z,9.50
2023-04-01T08:32:53.516Z,8.68
2023-04-01T08:35:36.920Z,6.90
2023-04-01T08:38:14.274Z,9.02
2023-04-01T08:40:58.203Z,6.90
2023-04-01T08:43:48.924Z,4.88
2023-04-01T08:46:23.270Z,3.92
2023-04-01T08:49:00.762Z,3.38
2023-04-01T08:52:03.726Z,3.50
2023-04-01T08:54:47.795Z,3.83
2023-04-01T08:57:55.392Z,4.15
2023-04-01T09:01:06.723Z,4.22
2023-04-01T09:03:55.863Z,4.05
2023-04-01T09:06:49.627Z,4.57
2023-04-01T09:09:46.120Z,3.70
2023-04-01T09:12:41.834Z,3.63
2023-04-01T09:15:28.297Z,3.05
2023-04-01T09:18:25.240Z,4.78
2023-04-01T09:21:19.989Z,4.80
2023-04-01T09:24:09.626Z,4.80
2023-04-01T09:27:06.060Z,4.78
2023-04-01T09:30:24.497Z,4.18
2023-04-01T09:33:23.778Z,4.45
2023-04-01T09:36:09.952Z,5.53
2023-04-01T09:39:00.298Z,4.30
2023-04-01T09:41:50.067Z,4.82
2023-04-01T09:44:44.186Z,4.60
2023-04-01T09:47:28.067Z,4.63
2023-04-01T09:50:16.980Z,4.93
2023-04-01T09:52:55.391Z,5.43
2023-04-01T09:55:47.166Z,5.07
2023-04-01T09:58:27.748Z,4.72
2023-04-01T10:01:39.518Z,4.43
2023-04-01T10:04:24.478Z,5.20
2023-04-01T10:07:08.509Z,5.30
2023-04-01T10:10:15.045Z,5.32
2023-04-01T10:13:18.384Z,5.88
2023-04-01T10:18:56.508Z,4.68
2023-04-01T10:21:57.906Z,4.22
2023-04-01T10:25:00.268Z,4.97
2023-04-01T10:27:50.442Z,4.75
2023-04-01T10:31:02.927Z,4.45
2023-04-01T10:33:43.258Z,5.05
2023-04-01T10:36:27.475Z,4.22
2023-04-01T10:39:17.223Z,4.53
2023-04-01T10:41:48.904Z,4.57
2023-04-01T10:45:16.964Z,4.35
2023-04-01T10:48:06.467Z,4.30
2023-04-01T10:51:19.297Z,4.05
2023-04-01T10:54:45.164Z,4.40
2023-04-01T10:57:59.759Z,4.25
2023-04-01T11:01:07.159Z,4.72
2023-04-01T11:04:21.230Z,4.65
2023-04-01T11:08:02.812Z,3.97
2023-04-01T11:10:55.791Z,3.75
2023-04-01T11:13:47.207Z,3.50
2023-04-01T11:16:49.808Z,3.70
2023-04-01T11:19:48.395Z,3.83
2023-04-01T11:22:32.853Z,4.00
2023-04-01T11:25:40.048Z,3.70
2023-04-01T11:29:02.726Z,3.53
2023-04-01T11:32:07.356Z,3.33
2023-04-01T11:34:47.498Z,3.33
2023-04-01T11:37:30.595Z,3.40
2023-04-01T11:40:35.454Z,3.58
2023-04-01T11:43:44.696Z,3.33
2023-04-01T11:47:08.838Z,4.43
2023-04-01T11:50:11.671Z,3.47
2023-04-01T11:52:58.084Z,3.75
2023-04-01T11:55:42.077Z,3.25
2023-04-01T11:58:32.006Z,3.38
2023-04-01T12:01:17.949Z,3.33
2023-04-01T12:04:12.439Z,2.60
2023-04-01T12:06:40.863Z,3.72
2023-04-01T12:09:16.226Z,3.10
2023-04-01T12:12:15.828Z,4.15
2023-04-01T12:14:44.520Z,2.47
2023-04-01T12:17:27.594Z,2.85
2023-04-01T12:20:39.348Z,2.90
2023-04-01T12:23:38.739Z,2.97
2023-04-01T12:26:20.854Z,2.45
2023-04-01T12:29:15.512Z,2.38
2023-04-01T12:31:54.151Z,2.00
2023-04-01T12:35:03.739Z,2.03
2023-04-01T12:37:35.745Z,2.78
2023-04-01T12:40:06.636Z,2.88
2023-04-01T12:42:52.661Z,2.63
2023-04-01T12:45:35.728Z,2.35
2023-04-01T12:48:42.906Z,2.97
2023-04-01T12:51:39.234Z,2.53
2023-04-01T12:55:00.890Z,2.50
2023-04-01T12:57:52.688Z,2.58
2023-04-01T13:00:26.975Z,3.42
2023-04-01T13:03:20.598Z,3.33
2023-04-01T13:06:42.302Z,3.47
2023-04-01T13:09:39.922Z,4.25
2023-04-01T13:12:26.657Z,3.88
2023-04-01T13:15:16.477Z,3.92
2023-04-01T13:17:57.505Z,3.15
2023-04-01T13:20:36.362Z,3.50
2023-04-01T13:23:17.053Z,3.63
2023-04-01T13:26:14.152Z,4.15
2023-04-01T13:28:55.182Z,4.10
2023-04-01T13:31:48.272Z,4.75
2023-04-01T13:34:41.657Z,3.20
2023-04-01T13:37:48.312Z,4.30
2023-04-01T13:40:25.206Z,3.38
2023-04-01T13:43:10.347Z,3.75
2023-04-01T13:45:47.923Z,5.18
2023-04-01T13:48:29.354Z,4.28
2023-04-01T13:51:14.501Z,4.05
2023-04-01T13:54:21.346Z,4.97
2023-04-01T13:56:59.712Z,4.00
2023-04-01T13:59:58.164Z,4.15
2023-04-01T14:02:47.986Z,3.97
2023-04-01T14:05:42.191Z,3.72
2023-04-01T14:08:45.220Z,3.70
2023-04-01T14:11:35.812Z,4.63
2023-04-01T14:14:22.185Z,5.88
2023-04-01T14:17:23.580Z,3.83
2023-04-01T14:20:13.467Z,3.55
2023-04-01T14:23:11.542Z,3.95
2023-04-01T14:26:03.448Z,6.15
2023-04-01T14:29:04.054Z,4.65
2023-04-01T14:32:14.300Z,3.58
2023-04-01T14:35:15.895Z,3.97
2023-04-01T14:37:47.396Z,4.55
2023-04-01T14:40:48.821Z,4.68
2023-04-01T14:43:29.296Z,4.20
2023-04-01T14:46:24.259Z,3.58
2023-04-01T14:49:11.105Z,4.53
2023-04-01T14:51:41.658Z,4.45
2023-04-01T14:54:13.611Z,3.85
2023-04-01T14:56:50.844Z,4.93
2023-04-01T14:59:25.251Z,3.92
2023-04-01T15:01:59.105Z,4.80
2023-04-01T15:04:43.160Z,5.03
2023-04-01T15:07:17.725Z,3.63
2023-04-01T15:10:09.375Z,4.40
2023-04-01T15:13:13.855Z,4.07
2023-04-01T15:16:04.588Z,4.68
2023-04-01T15:18:42.854Z,4.72
2023-04-01T15:21:45.440Z,5.50
2023-04-01T15:24:46.288Z,4.90
2023-04-01T15:27:43.583Z,5.55
2023-04-01T15:30:31.101Z,5.38
2023-04-01T15:33:27.003Z,4.70
2023-04-01T15:36:21.516Z,5.05
2023-04-01T15:38:55.129Z,4.00
2023-04-01T15:41:37.534Z,4.32
2023-04-01T15:44:36.819Z,4.07
2023-04-01T15:47:25.968Z,4.63
2023-04-01T15:50:33.097Z,5.07
2023-04-01T15:53:12.220Z,4.28
2023-04-01T15:55:59.308Z,4.85
2023-04-01T15:58:48.987Z,4.95
2023-04-01T16:01:45.301Z,4.32
2023-04-01T16:04:35.100Z,5.97
2023-04-01T16:07:28.157Z,4.25
2023-04-01T16:10:34.880Z,5.03
2023-04-01T16:13:29.478Z,4.00
2023-04-01T16:16:13.278Z,4.38
2023-04-01T16:19:04.086Z,4.60
2023-04-01T16:21:56.622Z,5.20
2023-04-01T16:24:37.334Z,4.60
2023-04-01T16:27:31.120Z,5.03
2023-04-01T16:30:24.675Z,4.78
2023-04-01T16:35:56.987Z,4.32
2023-04-01T16:38:54.424Z,4.63
2023-04-01T16:41:37.049Z,4.68
2023-04-01T16:44:16.421Z,4.20
2023-04-01T16:46:48.032Z,5.32
2023-04-01T16:49:27.360Z,4.30
2023-04-01T16:52:14.439Z,3.47
2023-04-01T16:55:02.874Z,3.97
2023-04-01T16:57:50.749Z,4.70
2023-04-01T17:00:19.221Z,3.78
2023-04-01T17:03:05.621Z,4.30
2023-04-01T17:06:02.306Z,5.65
2023-04-01T17:08:50.186Z,4.30
2023-04-01T17:11:48.534Z,4.40
2023-04-01T17:14:41.634Z,4.38
2023-04-01T17:17:34.916Z,4.88
2023-04-01T17:20:34.256Z,5.28
2023-04-01T17:23:30.597Z,4.32
2023-04-01T17:26:08.395Z,3.65
2023-04-01T17:29:04.551Z,5.25
2023-04-01T17:31:47.930Z,5.55
2023-04-01T17:34:37.456Z,5.03
2023-04-01T17:37:30.318Z,6.88
2023-04-01T17:40:19.475Z,7.77
2023-04-01T17:42:56.461Z,7.72
2023-04-01T17:45:47.122Z,7.82
2023-04-01T17:48:38.829Z,9.25
2023-04-01T17:51:10.159Z,7.03
2023-04-01T17:53:44.742Z,8.32
2023-04-01T17:56:36.794Z,5.90
2023-04-01T17:59:31.038Z,7.35
2023-04-01T18:02:17.088Z,7.85
2023-04-01T18:05:12.819Z,11.02
2023-04-01T18:07:59.109Z,14.43
2023-04-01T18:10:51.251Z,10.23
2023-04-01T18:13:25.156Z,14.32
2023-04-01T18:16:30.854Z,7.45
2023-04-01T18:19:31.208Z,6.95
2023-04-01T18:22:21.790Z,7.28
2023-04-01T18:24:56.800Z,8.48
2023-04-01T18:27:40.729Z,7.43
2023-04-01T18:30:18.565Z,6.28
2023-04-01T18:33:20.067Z,7.38
2023-04-01T18:36:09.210Z,6.30
2023-04-01T18:39:16.075Z,7.13
2023-04-01T18:41:54.178Z,7.22
2023-04-01T18:44:32.466Z,7.13
2023-04-01T18:47:34.265Z,9.80
2023-04-01T18:50:29.717Z,6.75
2023-04-01T18:53:16.487Z,8.35
2023-04-01T18:55:54.501Z,7.25
2023-04-01T18:58:41.998Z,8.15
2023-04-01T19:01:39.221Z,7.95
2023-04-01T19:04:27.513Z,7.80
2023-04-01T19:07:03.158Z,7.10
2023-04-01T19:09:34.271Z,7.25
2023-04-01T19:12:46.491Z,8.02
2023-04-01T19:15:24.368Z,9.00
2023-04-01T19:18:15.494Z,6.82
2023-04-01T19:21:11.786Z,6.90
2023-04-01T19:23:59.698Z,5.80
2023-04-01T19:26:41.664Z,7.70
2023-04-01T19:29:25.775Z,6.63
2023-04-01T19:32:18.124Z,7.93
2023-04-01T19:35:14.673Z,6.07
2023-04-01T19:38:01.896Z,6.05
2023-04-01T19:40:31.283Z,6.95
2023-04-01T19:43:05.457Z,6.32
2023-04-01T19:45:49.347Z,7.28
2023-04-01T19:48:39.603Z,6.28
2023-04-01T19:51:21.096Z,5.28
2023-04-01T19:53:59.583Z,5.95
2023-04-01T19:56:40.578Z,6.03
2023-04-01T19:59:33.582Z,5.68
2023-04-01T20:02:16.912Z,5.73
2023-04-01T20:07:29.065Z,6.60
2023-04-01T20:10:11.351Z,7.07
2023-04-01T20:13:14.249Z,6.63
2023-04-01T20:15:57.517Z,18.10
2023-04-01T20:18:41.919Z,17.05
2023-04-01T20:21:16.303Z,16.48
2023-04-01T20:24:02.609Z,15.85
2023-04-01T20:26:39.347Z,11.55
2023-04-01T20:29:23.484Z,15.45
2023-04-01T20:32:01.248Z,17.63
2023-04-01T20:35:07.230Z,14.07
2023-04-01T20:37:52.322Z,15.27
2023-04-01T20:40:53.570Z,17.85
2023-04-01T20:43:34.220Z,17.10
2023-04-01T20:46:21.612Z,16.90
2023-04-01T20:49:14.720Z,17.15
2023-04-01T20:51:59.312Z,17.73
2023-04-01T20:54:43.965Z,24.73
2023-04-01T20:57:34.042Z,33.33
2023-04-01T21:00:38.597Z,16.65
2023-04-01T21:03:38.186Z,18.65
2023-04-01T21:06:30.868Z,18.67
2023-04-01T21:09:24.554Z,22.15
2023-04-01T21:12:23.738Z,18.05
2023-04-01T21:15:06.222Z,14.60
2023-04-01T21:18:00.257Z,12.90
2023-04-01T21:20:48.491Z,16.95
2023-04-01T21:23:38.587Z,15.73
2023-04-01T21:26:21.284Z,15.07
2023-04-01T21:29:02.112Z,16.80
2023-04-01T21:31:49.007Z,15.15
2023-04-01T21:34:36.466Z,14.43
2023-04-01T21:37:29.099Z,15.68
2023-04-01T21:40:05.040Z,24.48
2023-04-01T21:42:36.781Z,16.33
2023-04-01T21:45:28.539Z,14.63
2023-04-01T21:48:21.408Z,12.43
2023-04-01T21:51:42.694Z,14.77
2023-04-01T21:54:35.764Z,12.38
2023-04-01T21:57:06.973Z,11.52
2023-04-01T22:00:07.161Z,17.42
2023-04-01T22:03:24.001Z,18.98
2023-04-01T22:05:58.915Z,15.65
2023-04-01T22:08:49.666Z,15.13
2023-04-01T22:11:46.077Z,13.25
2023-04-01T22:14:35.151Z,13.75
2023-04-01T22:17:37.922Z,9.65
2023-04-01T22:20:24.472Z,11.30
2023-04-01T22:23:31.294Z,11.52
2023-04-01T22:26:34.906Z,12.75
2023-04-01T22:29:12.842Z,14.23
2023-04-01T22:32:09.708Z,14.48
2023-04-01T22:34:52.716Z,13.25
2023-04-01T22:37:42.308Z,10.70
2023-04-01T22:40:23.095Z,9.90
2023-04-01T22:43:03.815Z,8.43
2023-04-01T22:45:49.428Z,9.98
2023-04-01T22:48:27.176Z,11.43
2023-04-01T22:51:21.582Z,10.70
2023-04-01T22:54:26.743Z,11.93
2023-04-01T22:57:13.628Z,7.93
2023-04-01T23:00:23.698Z,8.98
2023-04-01T23:03:41.472Z,6.55
2023-04-01T23:06:31.722Z,7.13
2023-04-01T23:09:03.231Z,8.73
2023-04-01T23:11:54.640Z,7.63
2023-04-01T23:14:27.769Z,8.63
2023-04-01T23:17:04.004Z,11.60
2023-04-01T23:19:58.571Z,11.55
2023-04-01T23:22:33.311Z,9.88
2023-04-01T23:25:36.118Z,7.20
2023-04-01T23:28:17.320Z,10.18
2023-04-01T23:30:45.301Z,8.60
2023-04-01T23:33:19.952Z,8.07
2023-04-01T23:36:11.919Z,8.30
2023-04-01T23:38:43.324Z,8.32
2023-04-01T23:41:21.542Z,8.15
2023-04-01T23:44:22.924Z,7.70
2023-04-01T23:46:52.758Z,10.23
2023-04-01T23:49:26.623Z,7.93
2023-04-01T23:52:01.890Z,11.65
2023-04-01T23:54:34.935Z,8.13
2023-04-01T23:57:12.692Z,7.53
2023-04-01T23:59:41.415Z,8.50
